This demonstration page uses our WeatherBlox Daily Observations layout. Learn more.

41.55636, -103.73856

Hourly Observations for December 11, 2019

Temp ( °F °C ) Dew Point ( °F °C ) Humidity (%) Winds ( mph kmh ) Pressure ( in mb ) Visibility ( mi km ) Precip ( " mm )
12:58 am 00:58 Clear 28 -2 17 -8.4 62 62 W 13 20 30.21 1023 10 16.09344 N/A
1:58 am 01:58 Clear 24 -4.4 16 -8.7 72 72 WSW 14 22 30.24 1024 10 16.09344 N/A
2:58 am 02:58 Clear 25 -3.9 16 -8.9 69 69 SW 14 22 30.24 1024 10 16.09344 N/A
3:58 am 03:58 Clear 28 -2.4 16 -8.8 62 62 WSW 13 20 30.21 1023 10 16.09344 N/A
4:58 am 04:58 Clear 28 -2.4 16 -8.9 61 61 WSW 18 30 30.21 1023 10 16.09344 N/A
5:58 am 05:58 Mostly Clear 32 0.1 15 -9.3 50 50 SW 18 30 30.18 1022 10 16.09344 N/A
6:58 am 06:58 Mostly Cloudy 30 -1.2 17 -8.2 59 59 SW 18 30 30.18 1022 10 16.09344 N/A
7:58 am 07:58 Mostly Sunny 29 -1.8 17 -8.2 62 62 SSW 13 20 30.18 1022 10 16.09344 N/A
8:58 am 08:58 Sunny 32 0.1 18 -7.7 56 56 SSW 18 30 30.18 1022 10 16.09344 N/A
9:58 am 09:58 Sunny 37 2.6 20 -6.8 50 50 SSW 13 20 30.15 1021 10 16.09344 N/A
10:58 am 10:58 Sunny 42 5.3 19 -7.1 41 41 SW 14 22 30.09 1019 10 16.09344 N/A
11:58 am 11:58 Sunny 39 3.7 25 -3.8 58 58 S 9 15 30.06 1018 10 16.09344 N/A
12:58 pm 12:58 Sunny 43 6.1 24 -4.2 48 48 SW 12 19 30 1016 10 16.09344 N/A
1:58 pm 13:58 Partly Cloudy 43 6.1 24 -4.7 46 46 SSW 9 15 30 1016 10 16.09344 N/A
2:58 pm 14:58 Partly Cloudy 41 4.8 26 -3.1 57 57 W 9 15 30 1016 10 16.09344 N/A
3:58 pm 15:58 Mostly Cloudy 38 3.6 22 -5.5 52 52 NW 10 17 30.03 1017 10 16.09344 N/A
4:58 pm 16:58 Cloudy 40 4.4 18 -7.8 41 41 WNW 18 30 30 1016 10 16.09344 N/A
5:58 pm 17:58 Mostly Cloudy 40 4.5 17 -8.1 40 40 WNW 23 37 29.97 1015 10 16.09344 N/A
6:58 pm 18:58 Mostly Cloudy 38 3.1 19 -7 48 48 W 20 31 30 1016 10 16.09344 N/A
7:58 pm 19:58 Partly Cloudy 37 3 19 -7.1 48 48 W 17 28 30 1016 10 16.09344 N/A
8:58 pm 20:58 Mostly Clear 37 2.9 21 -6.3 51 51 WNW 22 35 30 1016 10 16.09344 N/A
9:58 pm 21:58 Clear 36 2 22 -5.6 58 58 WNW 18 30 30 1016 10 16.09344 N/A
10:58 pm 22:58 Clear 35 1.9 23 -5.1 60 60 WNW 23 37 29.97 1015 10 16.09344 N/A

Powered by AerisWeather